Terminal Aerodrome Forecast
Issued by NWS Wakefield, VA

Home | Current Version | Previous Version | Text Only | Print | Product List | Glossary On
Versions: 1 2 3 4 5 6 7 8 9 10 11 12 13 14 15 16 17 18 19 20 21 22 23 24 25 26 27 28 29 30 31 32 33 34 35 36 37 38 39 40 41 42 43 44
000
FTUS41 KAKQ 191759 RRA
TAFRIC
TAF
KRIC 191759Z 1918/2018 17017G30KT 6SM SHRA VCTS SCT020 OVC050CB
     FM200000 17014G23KT 5SM TSRA BKN020CB
     FM200600 18012KT 6SM -SHRA OVC015
     FM200900 18012KT P6SM OVC040
     FM201300 19015G24KT P6SM BKN040=

USA.gov is the U.S. government's official web portal to all federal, state and local government web resources and services.